メインページ
METAR-TAF:

METAR-TAF

空港 :

ザーボル空港

Zabol, イラン

緯度: 31-20N, 経度: 061-29E, 海抜: 489m

現時点の気象観測

当レポートは45分前の05:00(UTC)に作成
北/北東の風 12kt
気温 18°C
湿度 37%
気圧 1015 hPa
視程10km以上
1,500メートル以下は雲なし、積乱雲なし

METAR: OIZB 210500Z 02012KT CAVOK 18/03 Q1015

時間: 09:15 (05:45 UTC)


TAF: 見つかりません

4,000以上の空港の気象観測と天気予報(METAR報とTAF報)

利用可能な観測所は地図上に黄色い丸と赤い丸で示す。

丸の上にカーソルを重ねると観測所名を参照できる。

次にクリックすると気象観測と天気予報を参照できる。

マップの切り替え:黒色「×」印の緑ボタンをクリックして拡大、「-」印の緑ボタンをクリックして縮小、緑色の三角印をクリックして隣りの地図に切り替え


METAR-TAF: